Weather at Boma Airport

Public forecast

Using degrees Celsius for public forecast. Weather courtesy of forecast.io.

Closest aviation weather report (METAR) to Boma Airport

Report is more than 6 hours old.

Closest report is Soyo Airport, 44.8 nm (82.9 km) WSW. Retrieved 2020/10/28 12:00 UTC (1 day ago):

FNSO 281200Z 25012KT 9999 SCT016 BKN080 ///// Q////

Closest aviation forecast (TAF) to Boma Airport

Closest forecast is Soyo Airport, 44.8 nm (82.9 km) WSW. Retrieved 2020/10/29 12:00 UTC (1 hour ago):

TAF FNSO 291100Z 2912/2924 25010KT 9999 SCT014 BKN050 TEMPO 2913/2917 7000 FEW025CB